Terminal Aerodrome Forecast
Issued by NWS Sterling, VA

Current Version | Previous Version | Text Only | Print | Product List | Glossary Off
Versions: 1 2 3 4 5 6 7 8 9 10 11 12 13 14 15 16 17 18 19 20 21 22 23 24 25 26 27 28

000
FTUS41 KLWX 260214 AAA
TAFIAD
TAF AMD
KIAD 260214Z 2602/2706 18007KT P6SM BKN025 BKN035 OVC250
      WS020/21055KT
     FM261500 20010KT P6SM BKN015
     FM261800 20015G23KT P6SM BKN015
     FM261900 21016G27KT P6SM BKN050
     FM262300 21013KT 6SM -SHRA OVC050=

USA.gov is the U.S. government's official web portal to all federal, state and local government web resources and services.